Impacts METAR Board
IDs:

KHYI - San Marcos Muni, TX, US

Updated at: 2300 UTC 29 May 2020
Potential Impact None Slight Moderate High
Time 29/11Z 29/12Z 29/13Z 29/14Z 29/15Z 29/16Z 29/17Z 29/18Z 29/19Z 29/20Z 29/21Z 29/22Z 29/23Z
Temp68 68 72 76 78 81 82 85 88 85 85 86 84
Dewpt67 67 69 69 68 67 67 67 63 65 63 64 62
Altim30.06 30.07 30.10 30.11 30.11 30.12 30.12 30.11 30.12 30.12 30.10 30.09 30.08
VIS10 10 10 10 10 10 10 10 10 10 10 10 10
CIG-- -- -- -- -- -- 47 -- -- -- -- -- --
CoverCLRCLRCLRCLRCLRCLRBKNFEWFEWFEWCLRCLRCLR
FltCatVFRVFRVFRVFRVFRVFRVFRVFRVFRVFRVFRVFRVFR
WX--------------------------
WDir34034035034020303505034050303030
WSpd7 9 10 8 12 10 9 13 6 11 14 13 8
WGst-- -- -- -- -- -- -- 18 -- -- -- -- --
Raw hourly METARs
KHYI 291056Z AUTO 34007KT 10SM CLR 20/19 A3006 RMK AO2 SLP170 T02000194
KHYI 291156Z AUTO 34009KT 10SM CLR 20/19 A3007 RMK AO2 SLP176 T02000194 10217 20200 53005
KHYI 291256Z AUTO 35010KT 10SM CLR 22/21 A3010 RMK AO2 SLP183 T02220206
KHYI 291356Z AUTO 34008KT 10SM CLR 24/21 A3011 RMK AO2 SLP189 T02440206
KHYI 291456Z AUTO 02012KT 10SM CLR 26/20 A3011 RMK AO2 SLP187 T02560200 50013
KHYI 291556Z AUTO 03010KT 10SM CLR 27/19 A3012 RMK AO2 SLP191 T02720194
KHYI 291656Z AUTO 35009KT 10SM SCT036 BKN047 28/19 A3012 RMK AO2 SLP191 T02780194
KHYI 291756Z AUTO 05013G18KT 10SM FEW039 29/19 A3011 RMK AO2 SLP187 T02940194 10294 20200 58001
KHYI 291855Z 340006KT 10SM FEW039 31/17 A3012
KHYI 291956Z 05011KT 10SM FEW050 29/18 A3012 RMK AO2 SLPNO T02940183
KHYI 292056Z 03014KT 10SM CLR 29/17 A3010 RMK AO2 SLPNO 6//// T02940172
KHYI 292156Z 03013KT 10SM CLR 30/18 A3009 RMK AO2 SLPNO T03000178
KHYI 292256Z 03008KT 10SM CLR 29/17 A3008 RMK AO2 SLPNO T02890167